createdAt,value
2018-08-25T00:00:19.514Z,16.00
2018-08-25T00:02:47.564Z,16.00
2018-08-25T00:05:15.509Z,16.00
2018-08-25T00:07:43.449Z,16.00
2018-08-25T00:10:11.404Z,16.00
2018-08-25T00:12:39.532Z,16.00
2018-08-25T00:15:07.845Z,16.00
2018-08-25T00:17:35.860Z,16.00
2018-08-25T00:20:03.961Z,16.00
2018-08-25T00:22:31.998Z,16.10
2018-08-25T00:24:59.971Z,16.00
2018-08-25T00:27:27.960Z,16.00
2018-08-25T00:29:56.171Z,16.00
2018-08-25T00:32:24.124Z,16.00
2018-08-25T00:34:52.084Z,16.00
2018-08-25T00:37:20.044Z,16.00
2018-08-25T00:39:48.008Z,16.00
2018-08-25T00:42:16.156Z,15.90
2018-08-25T00:44:44.151Z,15.90
2018-08-25T00:47:12.180Z,15.90
2018-08-25T00:49:40.121Z,15.90
2018-08-25T00:52:08.286Z,15.90
2018-08-25T00:54:36.344Z,15.90
2018-08-25T00:57:04.348Z,15.90
2018-08-25T00:59:32.412Z,15.90
2018-08-25T01:02:00.396Z,15.90
2018-08-25T01:04:28.394Z,15.90
2018-08-25T01:06:56.354Z,15.80
2018-08-25T01:09:24.333Z,15.70
2018-08-25T01:11:52.424Z,15.80
2018-08-25T01:14:20.394Z,15.90
2018-08-25T01:16:48.328Z,15.80
2018-08-25T01:19:16.300Z,15.70
2018-08-25T01:21:44.350Z,15.70
2018-08-25T01:24:12.285Z,15.70
2018-08-25T01:26:40.265Z,15.70
2018-08-25T01:29:08.210Z,15.70
2018-08-25T01:31:36.282Z,15.60
2018-08-25T01:34:04.365Z,15.60
2018-08-25T01:36:32.433Z,15.60
2018-08-25T01:39:00.413Z,15.60
2018-08-25T01:41:28.368Z,15.60
2018-08-25T01:43:56.344Z,15.60
2018-08-25T01:46:24.291Z,15.60
2018-08-25T01:48:52.876Z,15.60
2018-08-25T01:51:20.856Z,15.60
2018-08-25T01:53:48.826Z,15.50
2018-08-25T01:56:16.764Z,15.40
2018-08-25T01:58:44.879Z,15.40
2018-08-25T02:01:12.826Z,15.40
2018-08-25T02:03:40.771Z,15.40
2018-08-25T02:06:08.767Z,15.40
2018-08-25T02:08:36.720Z,15.50
2018-08-25T02:11:04.832Z,15.40
2018-08-25T02:13:32.820Z,15.40
2018-08-25T02:16:01.383Z,15.30
2018-08-25T02:18:29.549Z,15.30
2018-08-25T02:20:57.772Z,15.30
2018-08-25T02:23:25.849Z,15.30
2018-08-25T02:25:53.841Z,15.20
2018-08-25T02:28:21.884Z,15.10
2018-08-25T02:30:49.783Z,15.10
2018-08-25T02:33:17.832Z,15.00
2018-08-25T02:35:45.956Z,15.00
2018-08-25T02:38:13.909Z,15.00
2018-08-25T02:40:41.908Z,15.00
2018-08-25T02:43:09.906Z,15.00
2018-08-25T02:45:37.845Z,15.00
2018-08-25T02:48:05.869Z,14.90
2018-08-25T02:50:33.849Z,14.90
2018-08-25T02:53:01.848Z,14.90
2018-08-25T02:55:29.785Z,14.90
2018-08-25T02:57:57.729Z,14.90
2018-08-25T03:00:25.732Z,15.00
2018-08-25T03:02:53.726Z,15.00
2018-08-25T03:05:21.636Z,14.90
2018-08-25T03:07:49.681Z,14.90
2018-08-25T03:10:17.675Z,14.90
2018-08-25T03:12:45.693Z,14.90
2018-08-25T03:15:13.768Z,14.80
2018-08-25T03:17:41.748Z,14.80
2018-08-25T03:20:09.700Z,14.70
2018-08-25T03:22:37.706Z,14.80
2018-08-25T03:25:05.711Z,14.70
2018-08-25T03:27:33.712Z,14.70
2018-08-25T03:30:01.649Z,14.70
2018-08-25T03:32:29.614Z,14.60
2018-08-25T03:34:57.584Z,14.60
2018-08-25T03:37:25.572Z,14.70
2018-08-25T03:39:54.313Z,14.70
2018-08-25T03:42:22.336Z,14.70
2018-08-25T03:44:50.281Z,14.70
2018-08-25T03:47:18.416Z,14.70
2018-08-25T03:49:46.367Z,14.70
2018-08-25T03:52:14.399Z,14.70
2018-08-25T03:54:42.390Z,14.70
2018-08-25T03:57:10.334Z,14.70
2018-08-25T03:59:38.321Z,14.70
2018-08-25T04:02:06.285Z,14.70
2018-08-25T04:04:34.229Z,14.70
2018-08-25T04:07:02.304Z,14.70
2018-08-25T04:09:30.357Z,14.70
2018-08-25T04:11:58.418Z,14.70
2018-08-25T04:14:26.418Z,14.80
2018-08-25T04:16:54.900Z,14.70
2018-08-25T04:19:22.970Z,14.70
2018-08-25T04:21:51.295Z,14.60
2018-08-25T04:24:19.344Z,14.60
2018-08-25T04:26:47.329Z,14.60
2018-08-25T04:29:15.308Z,14.70
2018-08-25T04:31:43.362Z,14.60
2018-08-25T04:34:11.393Z,14.70
2018-08-25T04:36:39.364Z,14.70
2018-08-25T04:39:09.526Z,14.70
2018-08-25T04:41:37.483Z,14.70
2018-08-25T04:44:05.424Z,14.80
2018-08-25T04:46:33.423Z,14.80
2018-08-25T04:49:01.460Z,14.80
2018-08-25T04:51:29.403Z,14.80
2018-08-25T04:53:57.363Z,14.80
2018-08-25T04:56:25.301Z,14.80
2018-08-25T04:58:53.301Z,14.80
2018-08-25T05:01:21.275Z,14.90
2018-08-25T05:03:49.297Z,14.80
2018-08-25T05:06:17.288Z,14.90
2018-08-25T05:08:45.483Z,14.90
2018-08-25T05:11:13.489Z,14.90
2018-08-25T05:13:41.614Z,14.90
2018-08-25T05:16:09.600Z,15.00
2018-08-25T05:18:37.656Z,15.10
2018-08-25T05:21:05.648Z,15.10
2018-08-25T05:23:33.668Z,15.10
2018-08-25T05:26:01.629Z,14.90
2018-08-25T05:28:29.603Z,15.00
2018-08-25T05:30:57.683Z,15.00
2018-08-25T05:33:25.864Z,15.10
2018-08-25T05:35:53.812Z,15.10
2018-08-25T05:38:21.763Z,15.10
2018-08-25T05:40:49.731Z,15.10
2018-08-25T05:43:17.700Z,15.20
2018-08-25T05:45:45.690Z,15.30
2018-08-25T05:48:13.699Z,15.30
2018-08-25T05:50:41.769Z,15.30
2018-08-25T05:53:09.753Z,15.30
2018-08-25T05:55:37.723Z,15.30
2018-08-25T05:58:05.684Z,15.30
2018-08-25T06:00:33.688Z,15.30
2018-08-25T06:03:01.653Z,15.40
2018-08-25T06:05:29.634Z,15.30
2018-08-25T06:07:57.736Z,15.40
2018-08-25T06:10:26.378Z,15.50
2018-08-25T06:12:54.375Z,15.50
2018-08-25T06:15:22.429Z,15.60
2018-08-25T06:17:50.461Z,15.60
2018-08-25T06:20:18.382Z,15.50
2018-08-25T06:22:46.391Z,15.50
2018-08-25T06:25:14.375Z,15.60
2018-08-25T06:27:42.344Z,15.60
2018-08-25T06:30:10.392Z,15.60
2018-08-25T06:32:38.304Z,15.60
2018-08-25T06:35:06.551Z,15.60
2018-08-25T06:37:34.552Z,15.60
2018-08-25T06:40:02.496Z,15.60
2018-08-25T06:42:30.514Z,15.60
2018-08-25T06:44:58.478Z,15.60
2018-08-25T06:47:26.903Z,15.60
2018-08-25T06:49:54.916Z,15.60
2018-08-25T06:52:22.860Z,15.60
2018-08-25T06:54:50.910Z,15.50
2018-08-25T06:57:18.883Z,15.50
2018-08-25T06:59:46.824Z,15.50
2018-08-25T07:02:14.810Z,15.60
2018-08-25T07:04:42.799Z,15.50
2018-08-25T07:07:10.777Z,15.30
2018-08-25T07:09:38.801Z,15.20
2018-08-25T07:12:06.767Z,15.10
2018-08-25T07:14:34.744Z,15.10
2018-08-25T07:17:02.712Z,14.90
2018-08-25T07:19:30.668Z,14.90
2018-08-25T07:21:58.709Z,14.90
2018-08-25T07:24:27.435Z,14.90
2018-08-25T07:26:55.469Z,15.00
2018-08-25T07:29:23.433Z,14.70
2018-08-25T07:31:51.397Z,14.70
2018-08-25T07:34:19.466Z,14.60
2018-08-25T07:36:47.513Z,14.80
2018-08-25T07:39:15.510Z,14.70
2018-08-25T07:41:43.480Z,14.60
2018-08-25T07:44:11.572Z,14.80
2018-08-25T07:46:39.970Z,14.80
2018-08-25T07:49:07.908Z,14.90
2018-08-25T07:51:35.918Z,15.00
2018-08-25T07:54:04.017Z,15.30
2018-08-25T07:56:31.984Z,15.30
2018-08-25T07:59:00.127Z,15.40
2018-08-25T08:01:35.160Z,15.50
2018-08-25T08:04:03.289Z,15.40
2018-08-25T08:06:31.584Z,15.50
2018-08-25T08:08:59.893Z,15.20
2018-08-25T08:11:28.479Z,15.10
2018-08-25T08:16:31.106Z,15.10
2018-08-25T08:19:06.207Z,14.80
2018-08-25T08:21:34.129Z,14.90
2018-08-25T08:24:02.198Z,14.90
2018-08-25T08:26:30.887Z,15.10
2018-08-25T08:28:59.175Z,14.80
2018-08-25T08:31:27.161Z,15.00
2018-08-25T08:33:55.111Z,14.80
2018-08-25T08:36:23.152Z,15.10
2018-08-25T08:38:51.152Z,14.90
2018-08-25T08:41:19.288Z,15.20
2018-08-25T08:43:47.247Z,15.30
2018-08-25T08:46:19.804Z,15.00
2018-08-25T08:48:48.116Z,15.20
2018-08-25T08:51:16.118Z,15.60
2018-08-25T08:53:44.332Z,15.60
2018-08-25T08:56:12.430Z,15.50
2018-08-25T08:58:40.429Z,15.70
2018-08-25T09:01:08.412Z,16.00
2018-08-25T09:03:36.357Z,16.00
2018-08-25T09:06:04.329Z,15.80
2018-08-25T09:08:32.294Z,15.90
2018-08-25T09:11:00.257Z,16.00
2018-08-25T09:13:29.172Z,16.10
2018-08-25T09:15:57.151Z,15.90
2018-08-25T09:18:25.093Z,16.20
2018-08-25T09:20:53.071Z,16.50
2018-08-25T09:23:21.037Z,16.70
2018-08-25T09:25:49.002Z,16.40
2018-08-25T09:28:16.984Z,16.40
2018-08-25T09:30:44.980Z,16.30
2018-08-25T09:33:12.963Z,16.30
2018-08-25T09:35:41.044Z,16.30
2018-08-25T09:38:09.012Z,16.30
2018-08-25T09:40:37.020Z,15.80
2018-08-25T09:43:05.192Z,15.70
2018-08-25T09:45:33.155Z,16.20
2018-08-25T09:48:01.153Z,16.30
2018-08-25T09:50:29.816Z,16.40
2018-08-25T09:52:57.752Z,16.40
2018-08-25T09:55:25.724Z,16.40
2018-08-25T09:57:53.664Z,16.50
2018-08-25T10:00:21.684Z,16.50
2018-08-25T10:02:49.667Z,16.50
2018-08-25T10:05:17.653Z,16.50
2018-08-25T10:07:45.612Z,16.70
2018-08-25T10:10:13.607Z,17.20
2018-08-25T10:12:41.662Z,17.10
2018-08-25T10:15:09.692Z,17.10
2018-08-25T10:17:37.693Z,16.80
2018-08-25T10:20:05.959Z,17.20
2018-08-25T10:22:33.934Z,17.50
2018-08-25T10:25:01.885Z,17.70
2018-08-25T10:27:30.377Z,18.00
2018-08-25T10:29:58.312Z,18.00
2018-08-25T10:32:26.304Z,17.80
2018-08-25T10:34:54.283Z,17.90
2018-08-25T10:37:22.287Z,17.50
2018-08-25T10:39:50.308Z,17.80
2018-08-25T10:42:18.314Z,17.70
2018-08-25T10:44:46.350Z,17.60
2018-08-25T10:47:14.461Z,17.40
2018-08-25T10:49:42.415Z,17.30
2018-08-25T10:52:10.717Z,17.10
2018-08-25T10:54:38.863Z,17.10
2018-08-25T10:57:06.807Z,17.30
2018-08-25T10:59:34.841Z,17.50
2018-08-25T11:02:02.884Z,17.30
2018-08-25T11:04:32.546Z,17.20
2018-08-25T11:07:01.025Z,16.90
2018-08-25T11:09:29.004Z,16.90
2018-08-25T11:11:57.022Z,16.90
2018-08-25T11:14:25.073Z,16.80
2018-08-25T11:16:53.036Z,16.60
2018-08-25T11:19:20.988Z,16.50
2018-08-25T11:21:48.950Z,15.60
2018-08-25T11:24:17.006Z,15.70
2018-08-25T11:26:44.991Z,15.60
2018-08-25T11:29:13.057Z,15.70
2018-08-25T11:31:41.104Z,15.40
2018-08-25T11:34:09.080Z,15.80
2018-08-25T11:36:37.056Z,16.00
2018-08-25T11:39:08.904Z,16.30
2018-08-25T11:41:36.887Z,16.00
2018-08-25T11:44:04.898Z,16.00
2018-08-25T11:46:33.060Z,16.40
2018-08-25T11:49:02.166Z,16.10
2018-08-25T11:51:30.329Z,16.50
2018-08-25T11:53:58.483Z,16.60
2018-08-25T11:56:26.783Z,17.00
2018-08-25T11:58:54.917Z,16.80
2018-08-25T12:01:24.101Z,16.80
2018-08-25T12:03:52.476Z,17.10
2018-08-25T12:06:20.847Z,17.50
2018-08-25T12:08:49.092Z,17.50
2018-08-25T12:11:17.192Z,18.70
2018-08-25T12:13:45.410Z,19.40
2018-08-25T12:16:13.743Z,21.10
2018-08-25T12:18:42.288Z,20.10
2018-08-25T12:21:10.697Z,18.60
2018-08-25T12:23:38.702Z,17.80
2018-08-25T12:26:07.189Z,17.30
2018-08-25T12:28:35.148Z,17.00
2018-08-25T12:31:03.090Z,16.70
2018-08-25T12:33:31.112Z,16.60
2018-08-25T12:35:59.043Z,16.60
2018-08-25T12:38:27.085Z,16.70
2018-08-25T12:40:55.044Z,18.50
2018-08-25T12:43:22.994Z,19.70
2018-08-25T12:45:50.950Z,18.50
2018-08-25T12:48:18.926Z,17.80
2018-08-25T12:50:46.899Z,17.30
2018-08-25T12:53:14.874Z,17.10
2018-08-25T12:55:42.831Z,16.90
2018-08-25T12:58:10.834Z,17.00
2018-08-25T13:00:38.848Z,17.20
2018-08-25T13:03:06.805Z,17.80
2018-08-25T13:05:34.884Z,20.00
2018-08-25T13:08:02.979Z,22.20
2018-08-25T13:10:30.952Z,23.60
2018-08-25T13:12:58.953Z,21.60
2018-08-25T13:15:26.938Z,20.70
2018-08-25T13:17:55.039Z,19.20
2018-08-25T13:20:23.023Z,18.60
2018-08-25T13:22:51.114Z,18.30
2018-08-25T13:25:19.445Z,18.30
2018-08-25T13:27:47.387Z,18.10
2018-08-25T13:30:15.729Z,18.10
2018-08-25T13:32:43.772Z,17.80
2018-08-25T13:35:11.811Z,18.00
2018-08-25T13:37:39.760Z,18.30
2018-08-25T13:40:07.812Z,19.00
2018-08-25T13:42:35.783Z,20.90
2018-08-25T13:45:03.778Z,21.60
2018-08-25T13:47:31.736Z,21.10
2018-08-25T13:49:59.943Z,21.80
2018-08-25T13:52:27.926Z,21.90
2018-08-25T13:54:55.856Z,22.10
2018-08-25T13:57:23.804Z,21.80
2018-08-25T13:59:51.996Z,21.10
2018-08-25T14:02:19.959Z,20.00
2018-08-25T14:04:47.915Z,19.20
2018-08-25T14:07:15.945Z,18.50
2018-08-25T14:09:44.057Z,18.40
2018-08-25T14:12:12.128Z,18.70
2018-08-25T14:14:40.117Z,19.10
2018-08-25T14:17:08.052Z,19.30
2018-08-25T14:19:36.032Z,20.20
2018-08-25T14:22:04.591Z,19.70
2018-08-25T14:24:32.586Z,19.00
2018-08-25T14:27:00.660Z,19.90
2018-08-25T14:29:28.595Z,21.30
2018-08-25T14:31:56.622Z,20.20
2018-08-25T14:34:24.562Z,20.00
2018-08-25T14:36:52.543Z,20.30
2018-08-25T14:39:20.538Z,19.70
2018-08-25T14:41:48.486Z,19.00
2018-08-25T14:44:16.429Z,18.80
2018-08-25T14:46:44.432Z,18.20
2018-08-25T14:49:12.505Z,18.10
2018-08-25T14:51:40.472Z,18.10
2018-08-25T14:54:08.460Z,17.90
2018-08-25T14:56:36.490Z,17.80
2018-08-25T14:59:04.925Z,17.60
2018-08-25T15:01:32.937Z,17.50
2018-08-25T15:04:01.074Z,17.50
2018-08-25T15:06:29.125Z,17.40
2018-08-25T15:08:57.098Z,17.30
2018-08-25T15:11:25.227Z,16.90
2018-08-25T15:13:53.220Z,16.70
2018-08-25T15:16:21.153Z,16.70
2018-08-25T15:18:49.177Z,16.50
2018-08-25T15:21:17.073Z,16.50
2018-08-25T15:23:45.290Z,16.50
2018-08-25T15:26:13.242Z,16.40
2018-08-25T15:28:41.345Z,16.60
2018-08-25T15:31:09.348Z,16.80
2018-08-25T15:33:37.363Z,17.00
2018-08-25T15:36:05.636Z,18.00
2018-08-25T15:38:33.589Z,18.70
2018-08-25T15:41:02.206Z,19.60
2018-08-25T15:43:30.138Z,19.80
2018-08-25T15:45:58.135Z,19.90
2018-08-25T15:48:26.139Z,20.20
2018-08-25T15:50:54.080Z,20.90
2018-08-25T15:53:22.216Z,21.30
2018-08-25T15:55:50.152Z,21.10
2018-08-25T15:58:18.164Z,20.40
2018-08-25T16:00:46.178Z,20.60
2018-08-25T16:03:15.167Z,21.10
2018-08-25T16:05:43.240Z,20.30
2018-08-25T16:08:11.208Z,19.30
2018-08-25T16:10:39.205Z,18.50
2018-08-25T16:13:07.152Z,18.10
2018-08-25T16:15:36.089Z,17.90
2018-08-25T16:18:04.091Z,17.70
2018-08-25T16:20:32.052Z,17.50
2018-08-25T16:23:00.024Z,17.30
2018-08-25T16:25:28.228Z,17.40
2018-08-25T16:27:56.187Z,17.30
2018-08-25T16:30:24.172Z,17.40
2018-08-25T16:32:52.204Z,18.00
2018-08-25T16:35:20.156Z,18.90
2018-08-25T16:37:48.120Z,19.60
2018-08-25T16:40:16.142Z,19.70
2018-08-25T16:42:44.388Z,19.80
2018-08-25T16:45:12.597Z,20.40
2018-08-25T16:47:40.575Z,20.30
2018-08-25T16:50:08.643Z,20.40
2018-08-25T16:52:36.868Z,20.20
2018-08-25T16:55:04.905Z,20.10
2018-08-25T16:57:33.030Z,20.00
2018-08-25T17:00:01.090Z,19.90
2018-08-25T17:02:29.184Z,19.50
2018-08-25T17:04:57.151Z,19.80
2018-08-25T17:07:25.133Z,20.10
2018-08-25T17:09:53.148Z,19.40
2018-08-25T17:12:21.115Z,19.60
2018-08-25T17:14:49.195Z,19.40
2018-08-25T17:17:17.235Z,19.80
2018-08-25T17:19:45.268Z,19.60
2018-08-25T17:22:13.427Z,19.30
2018-08-25T17:24:41.415Z,19.30
2018-08-25T17:27:09.414Z,18.50
2018-08-25T17:29:37.424Z,18.10
2018-08-25T17:32:05.428Z,17.60
2018-08-25T17:34:33.473Z,17.40
2018-08-25T17:37:01.424Z,17.20
2018-08-25T17:39:29.388Z,17.00
2018-08-25T17:41:57.376Z,17.00
2018-08-25T17:44:25.377Z,16.80
2018-08-25T17:49:27.886Z,16.60
2018-08-25T17:51:55.943Z,16.50
2018-08-25T17:54:24.046Z,16.50
2018-08-25T17:56:52.099Z,16.40
2018-08-25T17:59:20.016Z,16.30
2018-08-25T18:01:48.019Z,16.30
2018-08-25T18:04:15.969Z,16.30
2018-08-25T18:06:43.972Z,16.10
2018-08-25T18:09:12.036Z,16.00
2018-08-25T18:11:40.042Z,15.90
2018-08-25T18:14:08.120Z,16.00
2018-08-25T18:16:36.087Z,16.90
2018-08-25T18:19:04.474Z,17.10
2018-08-25T18:21:32.417Z,17.50
2018-08-25T18:24:00.525Z,17.60
2018-08-25T18:26:28.528Z,17.50
2018-08-25T18:28:56.560Z,17.70
2018-08-25T18:31:24.567Z,17.70
2018-08-25T18:33:52.540Z,17.30
2018-08-25T18:36:20.535Z,17.50
2018-08-25T18:38:48.492Z,17.50
2018-08-25T18:41:16.464Z,17.50
2018-08-25T18:43:44.447Z,17.20
2018-08-25T18:46:12.425Z,16.80
2018-08-25T18:48:40.458Z,16.70
2018-08-25T18:51:08.913Z,16.70
2018-08-25T18:53:36.887Z,16.50
2018-08-25T18:56:04.837Z,16.50
2018-08-25T18:58:32.896Z,16.70
2018-08-25T19:01:01.481Z,16.40
2018-08-25T19:03:29.456Z,16.60
2018-08-25T19:05:57.377Z,16.40
2018-08-25T19:08:25.348Z,16.30
2018-08-25T19:10:53.329Z,16.40
2018-08-25T19:13:21.324Z,16.20
2018-08-25T19:15:49.513Z,16.20
2018-08-25T19:18:17.484Z,16.00
2018-08-25T19:20:45.469Z,16.10
2018-08-25T19:23:13.473Z,16.00
2018-08-25T19:25:41.569Z,16.00
2018-08-25T19:28:09.631Z,16.00
2018-08-25T19:30:37.782Z,16.00
2018-08-25T19:33:06.376Z,15.90
2018-08-25T19:35:34.404Z,16.10
2018-08-25T19:38:02.349Z,16.10
2018-08-25T19:40:30.307Z,15.80
2018-08-25T19:42:58.277Z,15.80
2018-08-25T19:45:26.261Z,15.90
2018-08-25T19:47:54.216Z,15.80
2018-08-25T19:50:22.208Z,15.60
2018-08-25T19:52:50.203Z,15.70
2018-08-25T19:55:18.168Z,15.60
2018-08-25T19:57:46.145Z,15.60
2018-08-25T20:00:14.175Z,15.50
2018-08-25T20:02:42.105Z,15.30
2018-08-25T20:05:10.274Z,15.30
2018-08-25T20:07:38.323Z,15.30
2018-08-25T20:10:06.604Z,14.90
2018-08-25T20:12:34.560Z,14.40
2018-08-25T20:15:02.561Z,14.40
2018-08-25T20:17:30.550Z,14.30
2018-08-25T20:19:58.608Z,14.20
2018-08-25T20:22:26.616Z,14.10
2018-08-25T20:24:54.585Z,15.00
2018-08-25T20:27:22.577Z,14.90
2018-08-25T20:29:50.636Z,14.90
2018-08-25T20:32:18.544Z,14.60
2018-08-25T20:34:46.621Z,14.70
2018-08-25T20:37:14.667Z,14.70
2018-08-25T20:39:42.601Z,14.90
2018-08-25T20:42:10.896Z,14.80
2018-08-25T20:44:39.649Z,14.80
2018-08-25T20:47:07.624Z,14.80
2018-08-25T20:49:35.618Z,14.80
2018-08-25T20:52:03.612Z,14.90
2018-08-25T20:54:31.609Z,14.80
2018-08-25T20:56:59.865Z,14.70
2018-08-25T20:59:27.831Z,14.70
2018-08-25T21:01:55.923Z,14.70
2018-08-25T21:04:23.890Z,14.60
2018-08-25T21:06:51.897Z,14.50
2018-08-25T21:09:19.848Z,14.50
2018-08-25T21:11:47.850Z,14.60
2018-08-25T21:14:15.809Z,14.60
2018-08-25T21:16:43.819Z,14.50
2018-08-25T21:19:11.836Z,14.70
2018-08-25T21:21:39.786Z,14.60
2018-08-25T21:24:07.866Z,14.40
2018-08-25T21:26:35.945Z,14.40
2018-08-25T21:29:03.904Z,14.50
2018-08-25T21:31:38.567Z,14.40
2018-08-25T21:34:06.804Z,14.30
2018-08-25T21:36:34.778Z,14.20
2018-08-25T21:39:02.745Z,14.10
2018-08-25T21:41:30.710Z,14.00
2018-08-25T21:43:58.776Z,14.00
2018-08-25T21:46:26.761Z,14.30
2018-08-25T21:48:54.741Z,14.20
2018-08-25T21:51:22.736Z,14.20
2018-08-25T21:53:50.826Z,14.40
2018-08-25T21:56:18.916Z,14.30
2018-08-25T21:58:46.969Z,14.30
2018-08-25T22:01:15.147Z,14.10
2018-08-25T22:03:43.148Z,14.20
2018-08-25T22:06:12.064Z,14.10
2018-08-25T22:08:40.042Z,14.00
2018-08-25T22:11:08.070Z,14.00
2018-08-25T22:13:36.121Z,14.00
2018-08-25T22:16:04.084Z,14.10
2018-08-25T22:18:32.140Z,14.00
2018-08-25T22:21:00.154Z,14.10
2018-08-25T22:23:28.092Z,14.00
2018-08-25T22:25:56.025Z,14.10
2018-08-25T22:28:23.978Z,14.10
2018-08-25T22:30:51.956Z,14.20
2018-08-25T22:33:19.924Z,14.10
2018-08-25T22:35:47.848Z,14.00
2018-08-25T22:38:15.851Z,13.80
2018-08-25T22:40:43.920Z,13.80
2018-08-25T22:43:12.857Z,13.70
2018-08-25T22:45:40.807Z,13.90
2018-08-25T22:48:08.745Z,13.80
2018-08-25T22:50:36.809Z,13.70
2018-08-25T22:53:04.759Z,13.80
2018-08-25T22:55:32.716Z,13.80
2018-08-25T22:58:00.668Z,13.70
2018-08-25T23:00:28.672Z,13.60
2018-08-25T23:02:56.616Z,13.60
2018-08-25T23:05:24.558Z,13.50
2018-08-25T23:07:52.500Z,13.70
2018-08-25T23:10:20.478Z,13.70
2018-08-25T23:12:48.428Z,13.60
2018-08-25T23:15:16.403Z,13.60
2018-08-25T23:17:44.410Z,13.50
2018-08-25T23:20:13.321Z,13.50
2018-08-25T23:22:41.336Z,13.60
2018-08-25T23:25:10.472Z,13.60
2018-08-25T23:27:38.392Z,13.30
2018-08-25T23:30:06.471Z,13.40
2018-08-25T23:32:34.467Z,13.60
2018-08-25T23:35:02.415Z,13.50
2018-08-25T23:37:30.384Z,13.50
2018-08-25T23:39:58.403Z,13.60
2018-08-25T23:42:26.359Z,13.60
2018-08-25T23:44:54.357Z,13.30
2018-08-25T23:47:22.317Z,13.30
2018-08-25T23:49:50.325Z,13.30
2018-08-25T23:52:18.368Z,13.30
2018-08-25T23:54:46.385Z,13.40
2018-08-25T23:57:14.384Z,13.40
2018-08-25T23:59:42.423Z,13.40
